Time;durP1;ratioP1;P1;durP2;ratioP2;P2;SDS_P1;SDS_P2;PMS_P1;PMS_P2;Temp;Humidity;BMP_temperature;BMP_pressure;BME280_temperature;BME280_humidity;BME280_pressure;Samples;Min_cycle;Max_cycle;Signal;HPM_P1;HPM_P2
2024/01/18 00:01:04;;;;;;;20.83;15.20;;;1.80;99.90;;;;;;5011382;28;20254;-60
2024/01/18 00:03:33;;;;;;;24.55;16.02;;;1.80;99.90;;;;;;5011852;28;20216;-60
2024/01/18 00:06:01;;;;;;;25.52;16.42;;;1.80;99.90;;;;;;5011456;28;20227;-61
2024/01/18 00:08:29;;;;;;;21.83;15.25;;;1.80;99.90;;;;;;5011839;28;20263;-60
2024/01/18 00:10:57;;;;;;;21.08;15.02;;;1.80;99.90;;;;;;5011452;28;20203;-60
2024/01/18 00:13:25;;;;;;;21.33;14.60;;;1.80;99.90;;;;;;5011835;28;20212;-61
2024/01/18 00:15:53;;;;;;;19.38;14.40;;;1.80;99.90;;;;;;5011541;28;20203;-60
2024/01/18 00:18:21;;;;;;;21.85;14.38;;;1.90;99.90;;;;;;5011463;28;20774;-60
2024/01/18 00:20:50;;;;;;;17.95;13.60;;;1.80;99.90;;;;;;5011367;28;20235;-60
2024/01/18 00:23:18;;;;;;;17.67;13.85;;;1.80;99.90;;;;;;5011767;28;20218;-60
2024/01/18 00:25:46;;;;;;;19.25;13.55;;;1.80;99.90;;;;;;5011258;28;20704;-60
2024/01/18 00:28:14;;;;;;;18.15;13.20;;;1.80;99.90;;;;;;5011633;28;20242;-61
2024/01/18 00:30:42;;;;;;;16.02;13.10;;;1.80;99.90;;;;;;5011208;28;20274;-60
2024/01/18 00:33:10;;;;;;;19.65;13.65;;;1.90;99.90;;;;;;5011829;28;20637;-60
2024/01/18 00:35:38;;;;;;;17.83;12.55;;;1.80;99.90;;;;;;5011283;28;20211;-61
2024/01/18 00:38:07;;;;;;;18.23;13.20;;;1.90;99.90;;;;;;5011696;28;20223;-60
2024/01/18 00:40:35;;;;;;;17.50;11.88;;;1.90;99.90;;;;;;5011034;28;20207;-60
2024/01/18 00:43:05;;;;;;;17.27;12.85;;;1.90;99.90;;;;;;5014301;28;20261;-60
2024/01/18 00:45:33;;;;;;;15.90;11.90;;;1.90;99.90;;;;;;5015117;28;20243;-60
2024/01/18 00:48:01;;;;;;;17.35;12.20;;;1.90;99.90;;;;;;5015250;28;20227;-61
2024/01/18 00:50:29;;;;;;;20.13;13.57;;;1.90;99.90;;;;;;5014751;28;20640;-60
2024/01/18 00:52:57;;;;;;;18.83;13.38;;;1.80;99.90;;;;;;5015271;28;20203;-60
2024/01/18 00:55:26;;;;;;;16.27;11.45;;;1.90;99.90;;;;;;5014861;28;20203;-60
2024/01/18 00:57:54;;;;;;;17.42;11.98;;;1.80;99.90;;;;;;5014955;28;20625;-61
2024/01/18 01:00:22;;;;;;;19.40;12.75;;;1.90;99.90;;;;;;5014671;28;20208;-60
2024/01/18 01:02:51;;;;;;;17.45;12.50;;;1.80;99.90;;;;;;5015261;28;20207;-60
2024/01/18 01:05:19;;;;;;;17.45;12.77;;;1.90;99.90;;;;;;5014681;28;20219;-60
2024/01/18 01:07:47;;;;;;;15.68;12.15;;;1.90;99.90;;;;;;5015058;28;20293;-61
2024/01/18 01:10:15;;;;;;;17.63;12.90;;;1.90;99.90;;;;;;5014349;28;20211;-60
2024/01/18 01:12:45;;;;;;;18.10;12.93;;;1.90;99.90;;;;;;5014831;28;20278;-61
2024/01/18 01:15:13;;;;;;;14.70;11.48;;;1.80;99.90;;;;;;5014568;28;20211;-60
2024/01/18 01:17:41;;;;;;;18.38;12.45;;;1.80;99.90;;;;;;5014883;28;20212;-60
2024/01/18 01:20:10;;;;;;;18.70;12.63;;;1.90;99.90;;;;;;5014238;28;20825;-61
2024/01/18 01:22:38;;;;;;;18.40;12.95;;;1.90;99.90;;;;;;5014748;28;20204;-60
2024/01/18 01:25:07;;;;;;;17.65;12.45;;;1.90;99.90;;;;;;5014251;28;20211;-60
2024/01/18 01:27:35;;;;;;;17.95;13.18;;;1.80;99.90;;;;;;5014717;28;20207;-61
2024/01/18 01:30:05;;;;;;;19.27;12.48;;;1.80;99.90;;;;;;5014152;28;20218;-61
2024/01/18 01:32:33;;;;;;;16.70;11.57;;;1.90;99.90;;;;;;5014588;28;20215;-61
2024/01/18 01:35:01;;;;;;;16.70;11.82;;;1.90;99.90;;;;;;5014100;28;20221;-60
2024/01/18 01:37:29;;;;;;;16.65;12.40;;;1.90;99.90;;;;;;5014307;28;20233;-60
2024/01/18 01:39:57;;;;;;;17.77;12.93;;;1.80;99.90;;;;;;5014269;28;20261;-61
2024/01/18 01:42:25;;;;;;;16.45;12.57;;;1.80;99.90;;;;;;5014479;28;20265;-61
2024/01/18 01:44:54;;;;;;;16.33;11.45;;;1.90;99.90;;;;;;5014501;28;20294;-61
2024/01/18 01:47:24;;;;;;;14.63;11.40;;;1.90;99.90;;;;;;5013803;28;20270;-60
2024/01/18 01:49:52;;;;;;;17.60;11.82;;;1.80;99.90;;;;;;5013871;28;20231;-60
2024/01/18 01:52:20;;;;;;;16.05;11.45;;;1.90;99.90;;;;;;5013876;28;20219;-61
2024/01/18 01:54:47;;;;;;;14.38;11.05;;;1.90;99.90;;;;;;5014130;28;20211;-61
2024/01/18 01:57:15;;;;;;;14.38;11.43;;;1.90;99.90;;;;;;5013837;28;20265;-61
2024/01/18 01:59:43;;;;;;;15.52;11.30;;;1.90;99.90;;;;;;5013822;28;20596;-61
2024/01/18 02:02:11;;;;;;;16.55;11.57;;;1.90;99.90;;;;;;5013713;28;20261;-61
2024/01/18 02:04:41;;;;;;;15.73;11.63;;;1.90;99.90;;;;;;5013773;28;20208;-61
2024/01/18 02:07:09;;;;;;;15.40;11.05;;;1.90;99.90;;;;;;5013488;28;20258;-61
2024/01/18 02:09:37;;;;;;;14.25;11.25;;;1.90;99.90;;;;;;5013833;28;20219;-60
2024/01/18 02:12:05;;;;;;;15.52;10.52;;;1.80;99.90;;;;;;5013839;28;20214;-60
2024/01/18 02:14:33;;;;;;;15.43;10.77;;;1.90;99.90;;;;;;5014830;28;20211;-60
2024/01/18 02:17:01;;;;;;;14.13;10.05;;;1.80;99.90;;;;;;5013328;28;20204;-61
2024/01/18 02:19:29;;;;;;;14.07;10.85;;;1.80;99.90;;;;;;5013306;28;20230;-60
2024/01/18 02:21:58;;;;;;;13.52;10.80;;;1.80;99.90;;;;;;5013123;28;20669;-61
2024/01/18 02:24:30;;;;;;;13.48;9.73;;;1.90;99.90;;;;;;5013458;28;20299;-61
2024/01/18 02:27:00;;;;;;;15.93;11.52;;;1.80;99.90;;;;;;5013200;28;20220;-60
2024/01/18 02:29:28;;;;;;;14.80;10.27;;;1.80;99.90;;;;;;5013264;28;20238;-60
2024/01/18 02:31:56;;;;;;;16.33;11.10;;;1.80;99.90;;;;;;5013182;28;20269;-60
2024/01/18 02:34:24;;;;;;;16.23;11.27;;;1.90;99.90;;;;;;5011392;28;20222;-61
2024/01/18 02:36:52;;;;;;;14.48;11.07;;;1.90;99.90;;;;;;5013097;28;20207;-60
2024/01/18 02:39:20;;;;;;;12.65;9.55;;;2.00;99.90;;;;;;5013102;28;20226;-60
2024/01/18 02:41:48;;;;;;;12.05;8.25;;;1.80;99.90;;;;;;5012722;28;20653;-60
2024/01/18 02:44:17;;;;;;;10.68;8.93;;;1.90;99.90;;;;;;5012917;28;20245;-60
2024/01/18 02:46:46;;;;;;;10.82;8.32;;;1.90;99.90;;;;;;5012760;28;20693;-60
2024/01/18 02:49:14;;;;;;;11.98;8.88;;;1.90;99.90;;;;;;5012958;28;20231;-60
2024/01/18 02:51:43;;;;;;;14.23;9.82;;;1.90;99.90;;;;;;5012346;28;20207;-60
2024/01/18 02:54:11;;;;;;;16.05;10.10;;;1.90;99.90;;;;;;5012651;28;20214;-60
2024/01/18 02:56:39;;;;;;;11.95;8.82;;;1.90;99.90;;;;;;5012744;28;20210;-61
2024/01/18 02:59:07;;;;;;;9.90;8.15;;;1.90;99.90;;;;;;5012904;28;20270;-61
2024/01/18 03:01:36;;;;;;;14.18;9.38;;;1.90;99.90;;;;;;5012397;28;20218;-60
2024/01/18 03:04:04;;;;;;;10.30;7.97;;;1.90;99.90;;;;;;5012375;28;20211;-60
2024/01/18 03:06:33;;;;;;;9.98;7.65;;;1.90;99.90;;;;;;5012382;28;20230;-61
2024/01/18 03:09:01;;;;;;;9.52;6.70;;;1.90;99.90;;;;;;5012781;28;20239;-61
2024/01/18 03:11:29;;;;;;;13.50;7.90;;;1.90;99.90;;;;;;5012324;28;20207;-61
2024/01/18 03:13:57;;;;;;;7.10;5.63;;;1.90;99.90;;;;;;5012609;28;20203;-59
2024/01/18 03:16:25;;;;;;;7.13;4.95;;;1.90;99.90;;;;;;5012253;28;20203;-61
2024/01/18 03:18:54;;;;;;;8.40;6.03;;;1.90;99.90;;;;;;5012659;28;20277;-61
2024/01/18 03:21:22;;;;;;;7.18;4.65;;;1.90;99.90;;;;;;5012180;28;20214;-61
2024/01/18 03:23:50;;;;;;;9.25;4.43;;;1.90;99.90;;;;;;5012366;28;20213;-60
2024/01/18 03:26:18;;;;;;;7.03;5.20;;;1.90;99.90;;;;;;5012219;28;20304;-61
2024/01/18 03:28:46;;;;;;;4.47;4.10;;;1.90;99.90;;;;;;5012440;28;20286;-60
2024/01/18 03:31:14;;;;;;;4.63;4.18;;;1.80;99.90;;;;;;5011770;28;20207;-61
2024/01/18 03:33:42;;;;;;;4.15;3.75;;;1.80;99.90;;;;;;5012413;28;20318;-61
2024/01/18 03:36:11;;;;;;;4.47;3.42;;;1.80;99.90;;;;;;5011881;28;20306;-60
2024/01/18 03:38:39;;;;;;;3.95;3.65;;;1.70;99.90;;;;;;5012152;28;20588;-60
2024/01/18 03:41:07;;;;;;;5.90;3.40;;;1.80;99.90;;;;;;5011610;28;20664;-61
2024/01/18 03:43:35;;;;;;;5.43;4.20;;;1.70;99.90;;;;;;5012007;28;20243;-60
2024/01/18 03:46:03;;;;;;;4.38;3.85;;;1.70;99.90;;;;;;5012104;28;20371;-60
2024/01/18 03:48:31;;;;;;;8.40;4.00;;;1.70;99.90;;;;;;5011822;28;20720;-60
2024/01/18 03:50:59;;;;;;;5.15;3.65;;;1.70;99.90;;;;;;5011656;28;20211;-60
2024/01/18 03:53:28;;;;;;;3.72;3.40;;;1.70;99.90;;;;;;5011929;28;20211;-60
2024/01/18 03:55:56;;;;;;;4.47;3.90;;;1.70;99.90;;;;;;5011781;28;20265;-60
2024/01/18 03:58:24;;;;;;;5.50;3.90;;;1.70;99.90;;;;;;5011655;28;20250;-60
2024/01/18 04:00:52;;;;;;;3.33;3.08;;;1.70;99.90;;;;;;5011694;28;20269;-61
2024/01/18 04:03:20;;;;;;;4.45;3.30;;;1.70;99.90;;;;;;5012036;28;20214;-60
2024/01/18 04:05:48;;;;;;;3.35;3.03;;;1.70;99.90;;;;;;5003574;28;20211;-61
2024/01/18 04:08:16;;;;;;;4.13;3.53;;;1.70;99.90;;;;;;5011669;28;20227;-59
2024/01/18 04:10:45;;;;;;;3.40;3.10;;;1.80;99.90;;;;;;5011200;28;20235;-61
2024/01/18 04:13:13;;;;;;;4.55;2.95;;;1.80;99.90;;;;;;5011955;28;20203;-59
2024/01/18 04:15:45;;;;;;;2.97;2.72;;;1.80;99.90;;;;;;5012341;28;20203;-61
2024/01/18 04:18:12;;;;;;;3.42;2.92;;;1.80;99.90;;;;;;5015904;28;20246;-61
2024/01/18 04:20:41;;;;;;;3.30;3.00;;;1.80;99.90;;;;;;5015199;28;20211;-60
2024/01/18 04:23:09;;;;;;;3.85;2.97;;;1.80;99.90;;;;;;5015704;28;20207;-60
2024/01/18 04:25:37;;;;;;;3.80;2.70;;;1.70;99.90;;;;;;5015678;28;20574;-60
2024/01/18 04:28:06;;;;;;;4.03;2.95;;;1.70;99.90;;;;;;5015817;28;20227;-61
2024/01/18 04:30:34;;;;;;;3.95;3.17;;;1.70;99.90;;;;;;5015229;28;20234;-59
2024/01/18 04:33:02;;;;;;;3.25;2.13;;;1.70;99.90;;;;;;5015538;28;20792;-60
2024/01/18 04:35:30;;;;;;;3.63;2.40;;;1.70;99.90;;;;;;5015187;28;20238;-60
2024/01/18 04:37:58;;;;;;;2.95;2.75;;;1.70;99.90;;;;;;5015364;28;20603;-60
2024/01/18 04:40:26;;;;;;;4.53;2.83;;;1.70;99.90;;;;;;5015120;28;20203;-61
2024/01/18 04:42:54;;;;;;;2.95;2.40;;;1.70;99.90;;;;;;5015350;28;20238;-60
2024/01/18 04:45:23;;;;;;;1.90;1.80;;;1.70;99.90;;;;;;5014537;28;20242;-60
2024/01/18 04:47:53;;;;;;;2.85;2.50;;;1.80;99.90;;;;;;5014905;28;20227;-61
2024/01/18 04:50:24;;;;;;;4.53;2.47;;;1.70;99.90;;;;;;5014913;28;20237;-60
2024/01/18 04:52:52;;;;;;;4.18;2.47;;;1.70;99.90;;;;;;5015368;28;20207;-60
2024/01/18 04:55:20;;;;;;;3.20;2.63;;;1.70;99.90;;;;;;5015145;28;20203;-61
2024/01/18 04:57:49;;;;;;;3.65;2.92;;;1.70;99.90;;;;;;5015031;28;20265;-60
2024/01/18 05:00:17;;;;;;;4.25;2.97;;;1.70;99.90;;;;;;5015495;28;20298;-60
2024/01/18 05:02:47;;;;;;;5.05;3.28;;;1.70;99.90;;;;;;5014942;28;20211;-61
2024/01/18 05:05:15;;;;;;;8.35;3.45;;;1.60;99.90;;;;;;5014936;28;20207;-61
2024/01/18 05:07:43;;;;;;;3.38;3.08;;;1.70;99.90;;;;;;5014918;28;20277;-61
2024/01/18 05:10:11;;;;;;;5.57;3.30;;;1.60;99.90;;;;;;5058202;22;20713;-61
2024/01/18 05:12:40;;;;;;;4.47;3.35;;;1.60;99.90;;;;;;5054614;28;20202;-61
2024/01/18 05:15:08;;;;;;;3.42;3.17;;;1.60;99.90;;;;;;5054618;28;20213;-61
2024/01/18 05:17:37;;;;;;;3.72;3.42;;;1.60;99.90;;;;;;5054120;28;20194;-62
2024/01/18 05:20:07;;;;;;;4.15;3.67;;;1.60;99.90;;;;;;5054327;28;20225;-60
2024/01/18 05:22:36;;;;;;;5.15;3.80;;;1.60;99.90;;;;;;5054316;28;20209;-61
2024/01/18 05:25:05;;;;;;;4.32;3.55;;;1.60;99.90;;;;;;5054508;28;20253;-61
2024/01/18 05:27:32;;;;;;;8.50;4.40;;;1.60;99.90;;;;;;5051735;28;20283;-61
2024/01/18 05:30:01;;;;;;;4.82;4.32;;;1.60;99.90;;;;;;5048378;28;20261;-61
2024/01/18 05:32:29;;;;;;;5.05;3.83;;;1.50;99.90;;;;;;5052816;28;20267;-61
2024/01/18 05:34:57;;;;;;;5.60;3.65;;;1.50;99.90;;;;;;5049229;28;20206;-61
2024/01/18 05:37:26;;;;;;;3.47;2.83;;;1.50;99.90;;;;;;5053116;28;20202;-62
2024/01/18 05:39:54;;;;;;;7.38;3.20;;;1.50;99.90;;;;;;5050974;28;20329;-61
2024/01/18 05:42:22;;;;;;;3.00;2.80;;;1.40;99.90;;;;;;5053439;28;20265;-62
2024/01/18 05:44:51;;;;;;;5.40;3.17;;;1.40;99.90;;;;;;5054020;28;20289;-61
2024/01/18 05:47:20;;;;;;;4.70;2.42;;;1.40;99.90;;;;;;5054128;28;20217;-60
2024/01/18 05:49:48;;;;;;;1.85;1.75;;;1.40;99.90;;;;;;5053677;28;20242;-61
2024/01/18 05:52:16;;;;;;;3.03;2.08;;;1.30;99.90;;;;;;5053661;28;20225;-61
2024/01/18 05:54:45;;;;;;;3.63;1.95;;;1.30;99.90;;;;;;5053722;28;20210;-62
2024/01/18 05:57:13;;;;;;;2.60;2.10;;;1.30;99.90;;;;;;5053217;28;20245;-60
2024/01/18 05:59:41;;;;;;;3.33;1.80;;;1.20;99.90;;;;;;5051734;28;20234;-61
2024/01/18 06:02:10;;;;;;;2.40;2.20;;;1.10;99.90;;;;;;5053227;28;20259;-61
2024/01/18 06:04:38;;;;;;;2.15;2.05;;;1.10;99.90;;;;;;5053415;28;20285;-60
2024/01/18 06:07:05;;;;;;;2.67;2.20;;;1.10;99.90;;;;;;5053152;28;20701;-60
2024/01/18 06:09:33;;;;;;;3.92;2.58;;;1.00;99.90;;;;;;5052770;28;20312;-61
2024/01/18 06:12:03;;;;;;;3.60;3.17;;;1.00;99.90;;;;;;5053228;28;20205;-61
2024/01/18 06:14:31;;;;;;;3.38;2.15;;;1.00;99.90;;;;;;5053395;28;20210;-61
2024/01/18 06:16:59;;;;;;;2.95;2.58;;;1.00;99.90;;;;;;5053197;28;20230;-61
2024/01/18 06:19:27;;;;;;;3.17;2.90;;;1.00;99.90;;;;;;5053651;28;20245;-62
2024/01/18 06:21:55;;;;;;;6.13;3.45;;;1.00;99.90;;;;;;5052856;28;20198;-62
2024/01/18 06:24:23;;;;;;;4.18;2.33;;;0.90;99.90;;;;;;5046451;28;20221;-62
2024/01/18 06:26:52;;;;;;;3.47;2.75;;;0.90;99.90;;;;;;5052544;28;20574;-62
2024/01/18 06:29:26;;;;;;;5.65;2.47;;;0.80;99.90;;;;;;5053038;28;20774;-62
2024/01/18 06:31:54;;;;;;;2.38;2.00;;;0.80;99.90;;;;;;5052896;28;20206;-60
2024/01/18 06:34:22;;;;;;;2.92;2.38;;;0.70;99.90;;;;;;5053017;28;20202;-61
2024/01/18 06:36:51;;;;;;;3.35;3.05;;;0.70;99.90;;;;;;5052566;28;20209;-62
2024/01/18 06:39:19;;;;;;;4.45;2.60;;;0.70;99.90;;;;;;5052139;28;20780;-62
2024/01/18 06:41:47;;;;;;;2.72;2.53;;;0.60;99.90;;;;;;5052482;28;20591;-61
2024/01/18 06:44:15;;;;;;;4.25;3.45;;;0.60;99.90;;;;;;5053221;28;20206;-61
2024/01/18 06:46:44;;;;;;;5.50;2.70;;;0.60;99.90;;;;;;5052719;28;20210;-61
2024/01/18 06:49:12;;;;;;;4.32;2.78;;;0.60;99.90;;;;;;5052889;28;20234;-61
2024/01/18 06:51:41;;;;;;;3.63;2.70;;;0.70;99.90;;;;;;5052481;28;20213;-61
2024/01/18 06:54:09;;;;;;;3.97;2.85;;;0.70;99.90;;;;;;5052670;28;20626;-60
2024/01/18 06:56:37;;;;;;;5.68;2.58;;;0.70;99.90;;;;;;5052257;28;20733;-62
2024/01/18 06:59:05;;;;;;;4.10;3.08;;;0.70;99.90;;;;;;5052440;28;20634;-64
2024/01/18 07:01:34;;;;;;;3.95;3.30;;;0.80;99.90;;;;;;5051788;28;20564;-63
2024/01/18 07:04:03;;;;;;;6.15;3.60;;;0.80;99.90;;;;;;5052413;28;20209;-63
2024/01/18 07:06:31;;;;;;;6.03;3.47;;;0.80;99.90;;;;;;5052255;28;20708;-63
2024/01/18 07:09:01;;;;;;;3.25;3.05;;;0.70;99.90;;;;;;5044540;28;20240;-62
2024/01/18 07:11:29;;;;;;;3.50;3.15;;;0.70;99.90;;;;;;5051714;28;20305;-62
2024/01/18 07:13:57;;;;;;;3.75;2.80;;;0.60;99.90;;;;;;5052116;28;20630;-64
2024/01/18 07:16:25;;;;;;;4.97;3.08;;;0.60;99.90;;;;;;5051924;28;20293;-63
2024/01/18 07:18:53;;;;;;;4.65;3.20;;;0.60;99.90;;;;;;5052304;28;20261;-63
2024/01/18 07:21:22;;;;;;;4.47;3.42;;;0.60;99.90;;;;;;5050854;28;20245;-63
2024/01/18 07:23:50;;;;;;;3.95;3.25;;;0.50;99.90;;;;;;5050222;28;20210;-63
2024/01/18 07:26:19;;;;;;;9.13;3.33;;;0.50;99.90;;;;;;5050529;28;20237;-63
2024/01/18 07:28:48;;;;;;;5.65;3.58;;;0.50;99.90;;;;;;5051667;28;20805;-63
2024/01/18 07:31:16;;;;;;;6.85;3.97;;;0.50;99.90;;;;;;5050997;28;20206;-63
2024/01/18 07:33:44;;;;;;;3.85;2.97;;;0.50;99.90;;;;;;5050860;28;20236;-63
2024/01/18 07:36:12;;;;;;;4.78;2.83;;;0.50;99.90;;;;;;5043682;28;20325;-63
2024/01/18 07:38:41;;;;;;;6.00;3.55;;;0.50;99.90;;;;;;5047779;28;20264;-61
2024/01/18 07:41:09;;;;;;;5.95;3.40;;;0.40;99.90;;;;;;5049601;28;20663;-63
2024/01/18 07:43:38;;;;;;;3.75;2.97;;;0.40;99.90;;;;;;5051716;28;20198;-62
2024/01/18 07:46:06;;;;;;;6.45;3.63;;;0.40;99.90;;;;;;5051514;28;20206;-62
2024/01/18 07:48:34;;;;;;;5.18;3.85;;;0.40;99.90;;;;;;5051700;28;20222;-63
2024/01/18 07:51:02;;;;;;;5.15;3.38;;;0.40;99.90;;;;;;5051052;28;20579;-63
2024/01/18 07:53:29;;;;;;;3.60;3.28;;;0.40;99.90;;;;;;5051716;28;20202;-63
2024/01/18 07:55:59;;;;;;;6.25;3.95;;;0.40;99.90;;;;;;5051096;28;20685;-63
2024/01/18 07:58:27;;;;;;;5.28;3.53;;;0.40;99.90;;;;;;5051681;28;20226;-63
2024/01/18 08:00:54;;;;;;;5.75;3.88;;;0.40;99.90;;;;;;5051193;28;20202;-63
2024/01/18 08:03:22;;;;;;;7.05;4.20;;;0.40;99.90;;;;;;5051609;28;20202;-63
2024/01/18 08:05:51;;;;;;;7.93;4.38;;;0.40;99.90;;;;;;5051438;28;20260;-62
2024/01/18 08:08:18;;;;;;;6.15;4.45;;;0.50;99.90;;;;;;5051172;28;20267;-62
2024/01/18 08:10:46;;;;;;;7.72;3.90;;;0.50;99.90;;;;;;5050934;28;20647;-62
2024/01/18 08:13:15;;;;;;;8.55;4.45;;;0.50;99.90;;;;;;5051420;28;20234;-63
2024/01/18 08:15:43;;;;;;;8.00;4.97;;;0.50;99.90;;;;;;5051342;28;20310;-63
2024/01/18 08:18:13;;;;;;;9.52;4.38;;;0.50;99.90;;;;;;5051007;28;20205;-60
2024/01/18 08:20:41;;;;;;;11.55;5.03;;;0.50;99.90;;;;;;5044804;28;22093;-62
2024/01/18 08:23:10;;;;;;;9.52;5.18;;;0.60;99.90;;;;;;5047655;28;20210;-61
2024/01/18 08:25:38;;;;;;;7.32;5.35;;;0.60;99.90;;;;;;5047171;28;20279;-63
2024/01/18 08:28:06;;;;;;;7.15;4.78;;;0.60;99.90;;;;;;5048147;28;21484;-63
2024/01/18 08:30:35;;;;;;;8.55;4.90;;;0.60;99.90;;;;;;5046426;28;20660;-63
2024/01/18 08:33:04;;;;;;;6.50;5.03;;;0.70;99.90;;;;;;5046793;28;20202;-63
2024/01/18 08:35:32;;;;;;;6.90;4.90;;;0.70;99.90;;;;;;5050866;28;20204;-63
2024/01/18 08:38:00;;;;;;;8.73;5.53;;;0.70;99.90;;;;;;5050813;28;20293;-62
2024/01/18 08:40:28;;;;;;;9.80;5.60;;;0.60;99.90;;;;;;5050662;28;20619;-63
2024/01/18 08:42:56;;;;;;;9.45;4.82;;;0.60;99.90;;;;;;5050615;28;20683;-63
2024/01/18 08:45:24;;;;;;;9.40;5.13;;;0.60;99.90;;;;;;5048855;28;20698;-63
2024/01/18 08:47:53;;;;;;;11.43;5.32;;;0.60;99.90;;;;;;5047327;28;20829;-62
2024/01/18 08:50:23;;;;;;;6.75;4.85;;;0.60;99.90;;;;;;5050213;28;20225;-63
2024/01/18 08:52:52;;;;;;;6.18;4.68;;;0.70;99.90;;;;;;5050988;28;20213;-64
2024/01/18 08:55:20;;;;;;;6.07;4.13;;;0.80;99.90;;;;;;5050900;28;20210;-63
2024/01/18 08:57:49;;;;;;;5.05;4.20;;;0.80;99.90;;;;;;5048949;28;20256;-63
2024/01/18 09:00:18;;;;;;;6.65;4.47;;;0.90;99.90;;;;;;5050318;28;20218;-64
2024/01/18 09:02:46;;;;;;;7.50;4.97;;;0.90;99.90;;;;;;5051448;28;20213;-63
2024/01/18 09:05:14;;;;;;;7.03;4.38;;;0.90;99.90;;;;;;5054769;28;20677;-63
2024/01/18 09:07:42;;;;;;;7.40;5.07;;;0.90;99.90;;;;;;5054513;28;20263;-63
2024/01/18 09:10:11;;;;;;;8.63;5.13;;;0.90;99.90;;;;;;5054210;28;20229;-63
2024/01/18 09:12:39;;;;;;;10.32;4.90;;;0.80;99.90;;;;;;5054411;28;20605;-63
2024/01/18 09:15:08;;;;;;;8.63;5.43;;;0.80;99.90;;;;;;5054431;28;20280;-64
2024/01/18 09:17:36;;;;;;;9.20;6.35;;;0.80;99.90;;;;;;5054561;28;20198;-63
2024/01/18 09:20:05;;;;;;;10.38;6.43;;;0.80;99.90;;;;;;5054260;28;20217;-64
2024/01/18 09:22:34;;;;;;;10.77;7.32;;;0.80;99.90;;;;;;5054425;28;20210;-64
2024/01/18 09:25:02;;;;;;;16.52;8.27;;;0.90;99.90;;;;;;5054399;28;20256;-63
2024/01/18 09:27:30;;;;;;;16.42;8.57;;;0.90;99.90;;;;;;5054027;28;20201;-62
2024/01/18 09:29:58;;;;;;;15.18;8.38;;;0.90;99.90;;;;;;5053962;28;20320;-61
2024/01/18 09:32:26;;;;;;;13.57;8.60;;;0.90;99.90;;;;;;5054045;28;20202;-63
2024/01/18 09:34:54;;;;;;;12.88;7.30;;;0.90;99.90;;;;;;5054070;28;20717;-63
2024/01/18 09:37:22;;;;;;;14.05;8.18;;;0.90;99.90;;;;;;5054040;28;20245;-63
2024/01/18 09:39:51;;;;;;;14.98;7.78;;;1.00;99.90;;;;;;5053847;28;20352;-63
2024/01/18 09:42:21;;;;;;;15.65;8.02;;;1.00;99.90;;;;;;5053847;28;20202;-63
2024/01/18 09:44:50;;;;;;;17.42;8.13;;;1.10;99.90;;;;;;5053877;28;20209;-63
2024/01/18 09:47:18;;;;;;;14.70;7.65;;;1.10;99.90;;;;;;5053913;28;20214;-64
2024/01/18 09:49:46;;;;;;;14.48;7.70;;;1.20;99.90;;;;;;5053496;28;20261;-63
2024/01/18 09:52:14;;;;;;;11.90;8.43;;;1.20;99.90;;;;;;5053728;28;20293;-63
2024/01/18 09:54:42;;;;;;;12.75;8.02;;;1.20;99.90;;;;;;5053633;28;20257;-63
2024/01/18 09:57:13;;;;;;;14.63;8.68;;;1.20;99.90;;;;;;5053569;28;20202;-63
2024/01/18 09:59:43;;;;;;;14.80;8.57;;;1.20;99.90;;;;;;5053755;28;20313;-64
2024/01/18 10:02:12;;;;;;;15.77;7.65;;;1.20;99.90;;;;;;5053352;28;20233;-64
2024/01/18 10:04:41;;;;;;;16.48;8.45;;;1.20;99.90;;;;;;5053653;28;20230;-64
2024/01/18 10:07:09;;;;;;;12.30;8.13;;;1.20;99.90;;;;;;5045305;28;20206;-62
2024/01/18 10:09:37;;;;;;;12.70;8.43;;;1.20;99.90;;;;;;5053358;28;20795;-63
2024/01/18 10:12:06;;;;;;;13.98;8.77;;;1.30;99.90;;;;;;5053011;28;20222;-63
2024/01/18 10:14:40;;;;;;;15.98;8.93;;;1.30;99.90;;;;;;5053393;28;20217;-63
2024/01/18 10:17:09;;;;;;;11.38;8.20;;;1.40;99.90;;;;;;5053238;28;20210;-63
2024/01/18 10:19:36;;;;;;;14.40;8.52;;;1.50;99.90;;;;;;5053147;28;20229;-63
2024/01/18 10:22:05;;;;;;;11.75;7.47;;;1.60;99.90;;;;;;5053012;28;20281;-64
2024/01/18 10:24:33;;;;;;;12.98;8.32;;;1.60;99.90;;;;;;5053440;28;20285;-63
2024/01/18 10:27:04;;;;;;;10.27;8.38;;;1.70;99.90;;;;;;5052847;28;20667;-64
2024/01/18 10:29:35;;;;;;;11.52;7.72;;;1.80;99.90;;;;;;5053148;28;20222;-63
2024/01/18 10:32:06;;;;;;;12.52;8.05;;;1.80;99.90;;;;;;5052517;28;20226;-63
2024/01/18 10:34:35;;;;;;;11.90;7.50;;;1.80;99.90;;;;;;5053277;28;20210;-63
2024/01/18 10:37:04;;;;;;;11.65;7.80;;;1.90;99.90;;;;;;5052912;28;20206;-63
2024/01/18 10:39:39;;;;;;;12.20;7.47;;;2.00;99.90;;;;;;5052927;28;20776;-64
2024/01/18 10:42:08;;;;;;;12.77;7.15;;;2.00;99.90;;;;;;5052438;28;20561;-64
2024/01/18 10:44:39;;;;;;;15.40;7.65;;;2.00;99.90;;;;;;5052803;28;20296;-63
2024/01/18 10:47:11;;;;;;;10.55;6.65;;;2.10;99.90;;;;;;5052800;28;20213;-62
2024/01/18 10:49:40;;;;;;;9.73;6.35;;;2.10;99.90;;;;;;5052670;28;20249;-63
2024/01/18 10:52:10;;;;;;;7.93;5.40;;;2.20;99.90;;;;;;5052434;28;20268;-63
2024/01/18 10:54:38;;;;;;;7.82;5.90;;;2.20;99.90;;;;;;5052690;28;20743;-63
2024/01/18 10:57:20;;;;;;;7.93;6.07;;;2.20;99.90;;;;;;5052377;28;20213;-63
2024/01/18 10:59:48;;;;;;;10.50;6.07;;;2.20;99.90;;;;;;5052481;28;20268;-63
2024/01/18 11:02:17;;;;;;;7.63;5.90;;;2.20;99.90;;;;;;5052467;28;20206;-63
2024/01/18 11:04:46;;;;;;;8.43;5.78;;;2.20;99.90;;;;;;5052311;28;20263;-63
2024/01/18 11:07:14;;;;;;;11.98;6.03;;;2.20;99.90;;;;;;5052209;28;20198;-63
2024/01/18 11:09:42;;;;;;;9.73;6.85;;;2.30;99.90;;;;;;5052164;28;20221;-63
2024/01/18 11:12:13;;;;;;;10.57;6.07;;;2.30;99.90;;;;;;5052081;28;20312;-64
2024/01/18 11:14:41;;;;;;;8.93;6.35;;;2.40;99.90;;;;;;5052237;28;20207;-63
2024/01/18 11:17:12;;;;;;;10.02;5.95;;;2.50;99.90;;;;;;5052109;28;20213;-63
2024/01/18 11:19:41;;;;;;;12.05;6.22;;;2.50;99.90;;;;;;5051744;28;20305;-63
2024/01/18 11:22:11;;;;;;;11.20;5.80;;;2.60;99.90;;;;;;5051676;28;20202;-63
2024/01/18 11:24:39;;;;;;;8.55;6.10;;;2.60;99.90;;;;;;5052277;28;20214;-63
2024/01/18 11:27:19;;;;;;;7.95;6.20;;;2.80;99.90;;;;;;5051244;28;20287;-63
2024/01/18 11:29:49;;;;;;;10.55;5.47;;;2.90;99.90;;;;;;5051095;28;20221;-62
2024/01/18 11:32:18;;;;;;;7.30;5.15;;;2.90;99.90;;;;;;5051707;28;20300;-64
2024/01/18 11:34:49;;;;;;;7.88;4.93;;;3.00;99.90;;;;;;5051302;28;20214;-63
2024/01/18 11:37:18;;;;;;;7.85;5.05;;;2.90;99.90;;;;;;5051781;28;20210;-64
2024/01/18 11:39:56;;;;;;;7.20;5.57;;;3.00;99.90;;;;;;5051208;28;20226;-63
2024/01/18 11:42:25;;;;;;;7.88;5.47;;;3.00;99.90;;;;;;5051495;28;20268;-63
2024/01/18 11:45:00;;;;;;;7.65;5.18;;;3.00;99.90;;;;;;5051423;28;20212;-63
2024/01/18 11:47:29;;;;;;;10.15;5.60;;;3.10;99.90;;;;;;5051632;28;20194;-63
2024/01/18 11:49:58;;;;;;;8.68;5.15;;;3.10;99.90;;;;;;5051411;28;20234;-63
2024/01/18 11:52:27;;;;;;;6.80;4.70;;;3.20;99.90;;;;;;5051408;28;20714;-63
2024/01/18 11:54:56;;;;;;;9.70;4.90;;;3.20;99.90;;;;;;5051569;28;20248;-63
2024/01/18 11:57:24;;;;;;;6.97;4.95;;;3.20;99.90;;;;;;5051321;28;20208;-63
2024/01/18 11:59:53;;;;;;;7.82;5.28;;;3.20;99.90;;;;;;5051205;28;20276;-63
2024/01/18 12:02:21;;;;;;;9.38;5.10;;;3.20;99.90;;;;;;5051290;28;20233;-63
2024/01/18 12:04:49;;;;;;;9.43;5.97;;;3.30;99.90;;;;;;5051570;28;20205;-61
2024/01/18 12:07:21;;;;;;;9.98;6.07;;;3.30;99.90;;;;;;5051340;28;20256;-64
2024/01/18 12:09:49;;;;;;;16.38;8.48;;;3.40;99.90;;;;;;5050960;28;20233;-63
2024/01/18 12:12:17;;;;;;;12.50;6.57;;;3.50;99.90;;;;;;5051298;28;20218;-63
2024/01/18 12:14:46;;;;;;;9.20;6.80;;;3.50;99.90;;;;;;5051102;28;20309;-63
2024/01/18 12:17:15;;;;;;;11.18;7.13;;;3.50;99.90;;;;;;5049869;28;20205;-62
2024/01/18 12:19:43;;;;;;;13.30;8.00;;;3.50;99.90;;;;;;5049989;28;20711;-63
2024/01/18 12:22:11;;;;;;;12.02;7.10;;;3.50;99.90;;;;;;5050378;28;20198;-64
2024/01/18 12:24:41;;;;;;;16.75;7.50;;;3.50;99.90;;;;;;5050506;28;20638;-63
2024/01/18 12:27:09;;;;;;;9.73;7.15;;;3.50;99.90;;;;;;5050349;28;20209;-64
2024/01/18 12:29:38;;;;;;;15.85;6.82;;;3.60;99.90;;;;;;5050244;28;20843;-63
2024/01/18 12:32:06;;;;;;;12.98;6.97;;;3.70;99.90;;;;;;5050722;28;20217;-63
2024/01/18 12:34:33;;;;;;;10.07;6.07;;;3.70;99.90;;;;;;5051166;28;20592;-63
2024/01/18 12:37:02;;;;;;;9.18;6.10;;;3.70;99.90;;;;;;5050739;28;20623;-63
2024/01/18 12:39:30;;;;;;;18.15;8.68;;;3.70;99.90;;;;;;5054786;28;20217;-64
2024/01/18 12:42:00;;;;;;;15.07;8.25;;;3.70;99.90;;;;;;5051754;28;20213;-63
2024/01/18 12:44:29;;;;;;;11.68;7.50;;;3.80;99.90;;;;;;5054420;28;20206;-63
2024/01/18 12:46:58;;;;;;;11.32;6.40;;;3.80;99.90;;;;;;5054406;28;20206;-64
2024/01/18 12:49:30;;;;;;;8.32;5.38;;;3.80;99.90;;;;;;5052135;28;20269;-63
2024/01/18 12:51:59;;;;;;;11.20;5.75;;;3.80;99.90;;;;;;5053715;28;20878;-64
2024/01/18 12:54:29;;;;;;;9.15;4.55;;;3.80;99.90;;;;;;5054893;28;20235;-62
2024/01/18 12:56:58;;;;;;;8.38;4.00;;;3.80;99.90;;;;;;5054306;28;20288;-62